Portada
METAR-TAF:

METAR-TAF

Aeropuertos :

Carcasona, Francia

latitud: 43-13N, longitud: 002-19E, altitud: 130 m

Observación

El informe se hizo hace 17 minutos, a las 08:30 UTC
Viento 10 kt del oeste
Temperatura 19°C
Humedad 68%
Presión 1023 hPa
Visibilidad 10 km o más
Cielo cubierto a una altura de 5400 ft

METAR: LFMK 180830Z AUTO 27010KT 9999 OVC054 19/13 Q1023 TEMPO 28015G25KT

Hora: 10:47 (08:47 UTC)

Pronóstico

El informe se hizo hace 47 minutos, a las 08:00 UTC
Pronóstico válido del 18 a las 09 UTC al 19 a las 09 UTC
Viento 10 kt del oeste
Visibilidad 10 km o más
Temporalmente
del 18 a las 10 UTC al 18 a las 17 UTC
Viento 15 kt del oeste con ráfagas de 25 kt

TAF: LFMK 180800Z 1809/1909 28010KT 9999 NSC TEMPO 1810/1817 28015G25KT

Observaciones y pronósticos meteorológicos de más de 4000 aeropuertos (mensajes METAR y TAF).

Los puntos amarillos y rojos representan las estaciones disponibles.

Ponga el ratón en el punto deseado para ver el nombre de la estación.

Haga clic para ver las observaciones y los pronósticos meteorológicos.

Para cambiar el mapa : haga clic en los botones verdes con una cruz de color negro para hacer un zoom, en el botón verde con un guión para alejar o en las flechas verdes para mapas adyacentes.


METAR-TAF: